sensor_id;sensor_type;location;lat;lon;timestamp;P1;durP1;ratioP1;P2;durP2;ratioP2
6479;SDS011;71753;48.772;9.148;2023-09-30T00:01:12;3.90;;;1.90;;
6479;SDS011;71753;48.772;9.148;2023-09-30T00:03:39;4.10;;;2.30;;
6479;SDS011;71753;48.772;9.148;2023-09-30T00:06:06;3.37;;;2.10;;
6479;SDS011;71753;48.772;9.148;2023-09-30T00:08:33;3.27;;;1.90;;
6479;SDS011;71753;48.772;9.148;2023-09-30T00:10:59;3.20;;;1.90;;
6479;SDS011;71753;48.772;9.148;2023-09-30T00:13:27;2.93;;;1.90;;
6479;SDS011;71753;48.772;9.148;2023-09-30T00:15:54;3.10;;;1.90;;
6479;SDS011;71753;48.772;9.148;2023-09-30T00:18:21;3.87;;;2.20;;
6479;SDS011;71753;48.772;9.148;2023-09-30T00:20:47;3.97;;;1.80;;
6479;SDS011;71753;48.772;9.148;2023-09-30T00:23:14;2.93;;;1.80;;
6479;SDS011;71753;48.772;9.148;2023-09-30T00:25:40;3.23;;;1.90;;
6479;SDS011;71753;48.772;9.148;2023-09-30T00:28:07;4.57;;;2.00;;
6479;SDS011;71753;48.772;9.148;2023-09-30T00:30:35;3.13;;;1.70;;
6479;SDS011;71753;48.772;9.148;2023-09-30T00:33:03;3.67;;;2.03;;
6479;SDS011;71753;48.772;9.148;2023-09-30T00:35:31;3.40;;;1.93;;
6479;SDS011;71753;48.772;9.148;2023-09-30T00:37:58;4.20;;;1.90;;
6479;SDS011;71753;48.772;9.148;2023-09-30T00:40:25;3.20;;;1.90;;
6479;SDS011;71753;48.772;9.148;2023-09-30T00:42:51;3.00;;;1.93;;
6479;SDS011;71753;48.772;9.148;2023-09-30T00:45:18;3.40;;;1.80;;
6479;SDS011;71753;48.772;9.148;2023-09-30T00:47:46;3.60;;;1.90;;
6479;SDS011;71753;48.772;9.148;2023-09-30T00:50:13;3.53;;;1.90;;
6479;SDS011;71753;48.772;9.148;2023-09-30T00:52:40;3.93;;;1.93;;
6479;SDS011;71753;48.772;9.148;2023-09-30T00:55:07;2.70;;;1.70;;
6479;SDS011;71753;48.772;9.148;2023-09-30T00:57:35;3.57;;;2.00;;
6479;SDS011;71753;48.772;9.148;2023-09-30T01:00:04;2.73;;;2.00;;
6479;SDS011;71753;48.772;9.148;2023-09-30T01:02:32;4.97;;;2.10;;
6479;SDS011;71753;48.772;9.148;2023-09-30T01:05:01;2.47;;;1.80;;
6479;SDS011;71753;48.772;9.148;2023-09-30T01:07:28;2.87;;;1.60;;
6479;SDS011;71753;48.772;9.148;2023-09-30T01:09:55;2.73;;;1.80;;
6479;SDS011;71753;48.772;9.148;2023-09-30T01:12:22;4.37;;;2.00;;
6479;SDS011;71753;48.772;9.148;2023-09-30T01:14:48;3.83;;;1.70;;
6479;SDS011;71753;48.772;9.148;2023-09-30T01:17:15;2.73;;;1.70;;
6479;SDS011;71753;48.772;9.148;2023-09-30T01:19:41;3.20;;;1.90;;
6479;SDS011;71753;48.772;9.148;2023-09-30T01:22:10;2.33;;;1.80;;
6479;SDS011;71753;48.772;9.148;2023-09-30T01:24:40;2.63;;;1.90;;
6479;SDS011;71753;48.772;9.148;2023-09-30T01:27:07;3.43;;;2.03;;
6479;SDS011;71753;48.772;9.148;2023-09-30T01:29:34;3.73;;;2.17;;
6479;SDS011;71753;48.772;9.148;2023-09-30T01:32:03;2.17;;;1.90;;
6479;SDS011;71753;48.772;9.148;2023-09-30T01:34:32;2.90;;;1.63;;
6479;SDS011;71753;48.772;9.148;2023-09-30T01:36:59;2.40;;;1.80;;
6479;SDS011;71753;48.772;9.148;2023-09-30T01:39:27;1.80;;;1.60;;
6479;SDS011;71753;48.772;9.148;2023-09-30T01:41:55;2.70;;;1.80;;
6479;SDS011;71753;48.772;9.148;2023-09-30T01:44:21;6.90;;;1.67;;
6479;SDS011;71753;48.772;9.148;2023-09-30T01:46:48;2.43;;;2.00;;
6479;SDS011;71753;48.772;9.148;2023-09-30T01:49:14;2.73;;;1.87;;
6479;SDS011;71753;48.772;9.148;2023-09-30T01:51:43;3.40;;;2.10;;
6479;SDS011;71753;48.772;9.148;2023-09-30T01:54:10;3.27;;;2.10;;
6479;SDS011;71753;48.772;9.148;2023-09-30T01:56:38;3.87;;;2.20;;
6479;SDS011;71753;48.772;9.148;2023-09-30T01:59:05;2.77;;;1.73;;
6479;SDS011;71753;48.772;9.148;2023-09-30T02:01:32;2.07;;;1.50;;
6479;SDS011;71753;48.772;9.148;2023-09-30T02:03:58;3.87;;;2.00;;
6479;SDS011;71753;48.772;9.148;2023-09-30T02:06:25;4.70;;;1.90;;
6479;SDS011;71753;48.772;9.148;2023-09-30T02:08:51;2.90;;;1.90;;
6479;SDS011;71753;48.772;9.148;2023-09-30T02:11:18;3.23;;;2.13;;
6479;SDS011;71753;48.772;9.148;2023-09-30T02:13:46;2.87;;;2.07;;
6479;SDS011;71753;48.772;9.148;2023-09-30T02:16:13;2.67;;;2.10;;
6479;SDS011;71753;48.772;9.148;2023-09-30T02:18:42;2.83;;;1.93;;
6479;SDS011;71753;48.772;9.148;2023-09-30T02:21:10;3.13;;;2.00;;
6479;SDS011;71753;48.772;9.148;2023-09-30T02:23:37;3.87;;;2.47;;
6479;SDS011;71753;48.772;9.148;2023-09-30T02:26:04;2.40;;;1.80;;
6479;SDS011;71753;48.772;9.148;2023-09-30T02:28:31;4.83;;;2.10;;
6479;SDS011;71753;48.772;9.148;2023-09-30T02:31:00;3.13;;;2.00;;
6479;SDS011;71753;48.772;9.148;2023-09-30T02:33:27;3.77;;;2.20;;
6479;SDS011;71753;48.772;9.148;2023-09-30T02:35:54;3.53;;;2.17;;
6479;SDS011;71753;48.772;9.148;2023-09-30T02:38:21;3.10;;;2.07;;
6479;SDS011;71753;48.772;9.148;2023-09-30T02:40:48;2.73;;;2.20;;
6479;SDS011;71753;48.772;9.148;2023-09-30T02:43:15;3.50;;;2.10;;
6479;SDS011;71753;48.772;9.148;2023-09-30T02:45:41;3.67;;;2.43;;
6479;SDS011;71753;48.772;9.148;2023-09-30T02:48:10;3.13;;;2.10;;
6479;SDS011;71753;48.772;9.148;2023-09-30T02:50:36;3.73;;;2.17;;
6479;SDS011;71753;48.772;9.148;2023-09-30T02:53:04;3.10;;;2.23;;
6479;SDS011;71753;48.772;9.148;2023-09-30T02:55:31;3.03;;;2.17;;
6479;SDS011;71753;48.772;9.148;2023-09-30T02:57:57;3.27;;;2.27;;
6479;SDS011;71753;48.772;9.148;2023-09-30T03:00:26;3.90;;;2.40;;
6479;SDS011;71753;48.772;9.148;2023-09-30T03:02:57;2.70;;;2.30;;
6479;SDS011;71753;48.772;9.148;2023-09-30T03:05:28;3.00;;;2.43;;
6479;SDS011;71753;48.772;9.148;2023-09-30T03:07:55;4.27;;;2.17;;
6479;SDS011;71753;48.772;9.148;2023-09-30T03:10:22;2.60;;;2.13;;
6479;SDS011;71753;48.772;9.148;2023-09-30T03:12:49;3.90;;;2.50;;
6479;SDS011;71753;48.772;9.148;2023-09-30T03:15:16;3.93;;;2.40;;
6479;SDS011;71753;48.772;9.148;2023-09-30T03:17:43;3.53;;;2.37;;
6479;SDS011;71753;48.772;9.148;2023-09-30T03:20:10;3.23;;;2.50;;
6479;SDS011;71753;48.772;9.148;2023-09-30T03:22:40;2.87;;;2.10;;
6479;SDS011;71753;48.772;9.148;2023-09-30T03:25:09;2.50;;;2.10;;
6479;SDS011;71753;48.772;9.148;2023-09-30T03:27:36;2.93;;;2.13;;
6479;SDS011;71753;48.772;9.148;2023-09-30T03:30:04;3.77;;;2.43;;
6479;SDS011;71753;48.772;9.148;2023-09-30T03:32:32;4.27;;;2.20;;
6479;SDS011;71753;48.772;9.148;2023-09-30T03:34:59;3.40;;;2.33;;
6479;SDS011;71753;48.772;9.148;2023-09-30T03:37:26;3.77;;;2.23;;
6479;SDS011;71753;48.772;9.148;2023-09-30T03:39:54;3.23;;;2.17;;
6479;SDS011;71753;48.772;9.148;2023-09-30T03:42:21;2.73;;;1.90;;
6479;SDS011;71753;48.772;9.148;2023-09-30T03:44:48;3.40;;;2.10;;
6479;SDS011;71753;48.772;9.148;2023-09-30T03:47:15;3.27;;;2.20;;
6479;SDS011;71753;48.772;9.148;2023-09-30T03:49:42;6.30;;;2.53;;
6479;SDS011;71753;48.772;9.148;2023-09-30T03:52:08;2.97;;;2.00;;
6479;SDS011;71753;48.772;9.148;2023-09-30T03:54:35;3.10;;;2.13;;
6479;SDS011;71753;48.772;9.148;2023-09-30T03:57:04;3.20;;;2.20;;
6479;SDS011;71753;48.772;9.148;2023-09-30T03:59:30;2.80;;;2.20;;
6479;SDS011;71753;48.772;9.148;2023-09-30T04:01:57;4.23;;;2.33;;
6479;SDS011;71753;48.772;9.148;2023-09-30T04:04:23;2.87;;;2.07;;
6479;SDS011;71753;48.772;9.148;2023-09-30T04:06:50;3.00;;;2.10;;
6479;SDS011;71753;48.772;9.148;2023-09-30T04:09:17;3.83;;;1.90;;
6479;SDS011;71753;48.772;9.148;2023-09-30T04:11:44;3.37;;;1.97;;
6479;SDS011;71753;48.772;9.148;2023-09-30T04:14:12;3.53;;;2.13;;
6479;SDS011;71753;48.772;9.148;2023-09-30T04:16:42;3.40;;;2.37;;
6479;SDS011;71753;48.772;9.148;2023-09-30T04:19:09;3.33;;;2.50;;
6479;SDS011;71753;48.772;9.148;2023-09-30T04:21:36;4.83;;;2.37;;
6479;SDS011;71753;48.772;9.148;2023-09-30T04:24:04;3.97;;;2.20;;
6479;SDS011;71753;48.772;9.148;2023-09-30T04:26:31;3.10;;;2.40;;
6479;SDS011;71753;48.772;9.148;2023-09-30T04:28:57;2.47;;;1.77;;
6479;SDS011;71753;48.772;9.148;2023-09-30T04:31:25;2.60;;;2.20;;
6479;SDS011;71753;48.772;9.148;2023-09-30T04:33:53;3.00;;;1.90;;
6479;SDS011;71753;48.772;9.148;2023-09-30T04:36:20;2.83;;;2.33;;
6479;SDS011;71753;48.772;9.148;2023-09-30T04:38:48;4.33;;;2.47;;
6479;SDS011;71753;48.772;9.148;2023-09-30T04:41:14;3.43;;;2.20;;
6479;SDS011;71753;48.772;9.148;2023-09-30T04:43:41;3.37;;;2.60;;
6479;SDS011;71753;48.772;9.148;2023-09-30T04:46:08;3.90;;;2.77;;
6479;SDS011;71753;48.772;9.148;2023-09-30T04:48:38;4.33;;;2.33;;
6479;SDS011;71753;48.772;9.148;2023-09-30T04:51:08;3.60;;;2.20;;
6479;SDS011;71753;48.772;9.148;2023-09-30T04:53:36;3.40;;;2.33;;
6479;SDS011;71753;48.772;9.148;2023-09-30T04:56:03;3.43;;;2.53;;
6479;SDS011;71753;48.772;9.148;2023-09-30T04:58:30;4.03;;;2.40;;
6479;SDS011;71753;48.772;9.148;2023-09-30T05:00:57;4.00;;;2.30;;
6479;SDS011;71753;48.772;9.148;2023-09-30T05:03:23;4.50;;;2.47;;
6479;SDS011;71753;48.772;9.148;2023-09-30T05:05:52;2.57;;;2.10;;
6479;SDS011;71753;48.772;9.148;2023-09-30T05:08:20;2.37;;;2.13;;
6479;SDS011;71753;48.772;9.148;2023-09-30T05:10:48;4.13;;;2.10;;
6479;SDS011;71753;48.772;9.148;2023-09-30T05:13:15;3.33;;;2.53;;
6479;SDS011;71753;48.772;9.148;2023-09-30T05:15:42;4.23;;;2.60;;
6479;SDS011;71753;48.772;9.148;2023-09-30T05:18:09;4.90;;;2.30;;
6479;SDS011;71753;48.772;9.148;2023-09-30T05:20:35;2.97;;;2.00;;
6479;SDS011;71753;48.772;9.148;2023-09-30T05:23:05;3.80;;;2.30;;
6479;SDS011;71753;48.772;9.148;2023-09-30T05:25:33;3.60;;;2.17;;
6479;SDS011;71753;48.772;9.148;2023-09-30T05:28:00;4.20;;;2.40;;
6479;SDS011;71753;48.772;9.148;2023-09-30T05:30:26;3.47;;;2.50;;
6479;SDS011;71753;48.772;9.148;2023-09-30T05:32:53;3.63;;;2.40;;
6479;SDS011;71753;48.772;9.148;2023-09-30T05:35:19;2.60;;;2.20;;
6479;SDS011;71753;48.772;9.148;2023-09-30T05:37:47;3.17;;;2.37;;
6479;SDS011;71753;48.772;9.148;2023-09-30T05:40:18;3.17;;;2.20;;
6479;SDS011;71753;48.772;9.148;2023-09-30T05:42:50;4.53;;;2.30;;
6479;SDS011;71753;48.772;9.148;2023-09-30T05:45:18;3.90;;;2.43;;
6479;SDS011;71753;48.772;9.148;2023-09-30T05:47:45;3.60;;;2.23;;
6479;SDS011;71753;48.772;9.148;2023-09-30T05:50:11;4.13;;;2.53;;
6479;SDS011;71753;48.772;9.148;2023-09-30T05:52:41;4.00;;;2.47;;
6479;SDS011;71753;48.772;9.148;2023-09-30T05:55:08;2.87;;;2.20;;
6479;SDS011;71753;48.772;9.148;2023-09-30T05:57:36;4.73;;;2.40;;
6479;SDS011;71753;48.772;9.148;2023-09-30T06:00:04;3.27;;;2.10;;
6479;SDS011;71753;48.772;9.148;2023-09-30T06:02:45;2.60;;;1.90;;
6479;SDS011;71753;48.772;9.148;2023-09-30T06:05:12;2.37;;;2.00;;
6479;SDS011;71753;48.772;9.148;2023-09-30T06:07:40;3.90;;;2.20;;
6479;SDS011;71753;48.772;9.148;2023-09-30T06:10:10;3.17;;;2.13;;
6479;SDS011;71753;48.772;9.148;2023-09-30T06:12:38;2.90;;;2.23;;
6479;SDS011;71753;48.772;9.148;2023-09-30T06:15:05;2.67;;;2.17;;
6479;SDS011;71753;48.772;9.148;2023-09-30T06:17:33;2.60;;;2.20;;
6479;SDS011;71753;48.772;9.148;2023-09-30T06:19:59;4.30;;;2.40;;
6479;SDS011;71753;48.772;9.148;2023-09-30T06:22:34;4.03;;;2.43;;
6479;SDS011;71753;48.772;9.148;2023-09-30T06:25:00;3.20;;;2.50;;
6479;SDS011;71753;48.772;9.148;2023-09-30T06:27:28;4.63;;;2.63;;
6479;SDS011;71753;48.772;9.148;2023-09-30T06:29:56;2.43;;;2.17;;
6479;SDS011;71753;48.772;9.148;2023-09-30T06:32:23;3.47;;;2.50;;
6479;SDS011;71753;48.772;9.148;2023-09-30T06:34:50;3.60;;;2.33;;
6479;SDS011;71753;48.772;9.148;2023-09-30T06:37:17;3.20;;;2.40;;
6479;SDS011;71753;48.772;9.148;2023-09-30T06:39:43;4.60;;;2.93;;
6479;SDS011;71753;48.772;9.148;2023-09-30T06:42:10;3.93;;;2.50;;
6479;SDS011;71753;48.772;9.148;2023-09-30T06:44:36;4.50;;;2.50;;
6479;SDS011;71753;48.772;9.148;2023-09-30T06:47:04;5.70;;;2.43;;
6479;SDS011;71753;48.772;9.148;2023-09-30T06:49:33;4.53;;;2.83;;
6479;SDS011;71753;48.772;9.148;2023-09-30T06:52:00;4.67;;;2.70;;
6479;SDS011;71753;48.772;9.148;2023-09-30T06:54:28;4.40;;;2.40;;
6479;SDS011;71753;48.772;9.148;2023-09-30T06:56:56;5.40;;;2.50;;
6479;SDS011;71753;48.772;9.148;2023-09-30T06:59:23;4.27;;;2.60;;
6479;SDS011;71753;48.772;9.148;2023-09-30T07:01:50;4.00;;;2.60;;
6479;SDS011;71753;48.772;9.148;2023-09-30T07:04:18;3.33;;;2.63;;
6479;SDS011;71753;48.772;9.148;2023-09-30T07:06:46;4.13;;;2.90;;
6479;SDS011;71753;48.772;9.148;2023-09-30T07:09:13;5.63;;;2.73;;
6479;SDS011;71753;48.772;9.148;2023-09-30T07:11:39;4.13;;;2.87;;
6479;SDS011;71753;48.772;9.148;2023-09-30T07:14:06;6.13;;;3.07;;
6479;SDS011;71753;48.772;9.148;2023-09-30T07:16:33;4.03;;;2.67;;
6479;SDS011;71753;48.772;9.148;2023-09-30T07:19:00;3.93;;;2.87;;
6479;SDS011;71753;48.772;9.148;2023-09-30T07:21:29;4.63;;;3.13;;
6479;SDS011;71753;48.772;9.148;2023-09-30T07:23:56;4.20;;;2.43;;
6479;SDS011;71753;48.772;9.148;2023-09-30T07:26:23;4.23;;;2.80;;
6479;SDS011;71753;48.772;9.148;2023-09-30T07:28:50;4.20;;;2.80;;
6479;SDS011;71753;48.772;9.148;2023-09-30T07:31:19;4.00;;;2.40;;
6479;SDS011;71753;48.772;9.148;2023-09-30T07:33:47;3.57;;;2.60;;
6479;SDS011;71753;48.772;9.148;2023-09-30T07:36:14;4.83;;;2.70;;
6479;SDS011;71753;48.772;9.148;2023-09-30T07:38:42;4.67;;;2.47;;
6479;SDS011;71753;48.772;9.148;2023-09-30T07:41:09;3.47;;;2.40;;
6479;SDS011;71753;48.772;9.148;2023-09-30T07:43:35;5.17;;;2.57;;
6479;SDS011;71753;48.772;9.148;2023-09-30T07:46:04;3.53;;;2.40;;
6479;SDS011;71753;48.772;9.148;2023-09-30T07:48:32;3.53;;;2.70;;
6479;SDS011;71753;48.772;9.148;2023-09-30T07:50:58;4.50;;;2.77;;
6479;SDS011;71753;48.772;9.148;2023-09-30T07:53:25;3.53;;;2.57;;
6479;SDS011;71753;48.772;9.148;2023-09-30T07:55:54;4.23;;;2.77;;
6479;SDS011;71753;48.772;9.148;2023-09-30T07:58:21;4.27;;;2.60;;
6479;SDS011;71753;48.772;9.148;2023-09-30T08:00:48;3.83;;;2.57;;
6479;SDS011;71753;48.772;9.148;2023-09-30T08:03:14;6.37;;;2.60;;
6479;SDS011;71753;48.772;9.148;2023-09-30T08:05:41;4.97;;;2.67;;
6479;SDS011;71753;48.772;9.148;2023-09-30T08:08:08;3.23;;;2.60;;
6479;SDS011;71753;48.772;9.148;2023-09-30T08:10:35;4.00;;;2.70;;
6479;SDS011;71753;48.772;9.148;2023-09-30T08:13:03;3.97;;;2.57;;
6479;SDS011;71753;48.772;9.148;2023-09-30T08:15:30;5.00;;;2.43;;
6479;SDS011;71753;48.772;9.148;2023-09-30T08:17:56;3.57;;;2.27;;
6479;SDS011;71753;48.772;9.148;2023-09-30T08:20:23;3.17;;;2.43;;
6479;SDS011;71753;48.772;9.148;2023-09-30T08:22:50;3.33;;;2.50;;
6479;SDS011;71753;48.772;9.148;2023-09-30T08:25:17;4.60;;;2.67;;
6479;SDS011;71753;48.772;9.148;2023-09-30T08:27:43;4.03;;;2.37;;
6479;SDS011;71753;48.772;9.148;2023-09-30T08:30:16;5.17;;;2.93;;
6479;SDS011;71753;48.772;9.148;2023-09-30T08:32:42;4.27;;;2.50;;
6479;SDS011;71753;48.772;9.148;2023-09-30T08:35:09;3.57;;;2.70;;
6479;SDS011;71753;48.772;9.148;2023-09-30T08:37:36;4.30;;;2.50;;
6479;SDS011;71753;48.772;9.148;2023-09-30T08:40:03;5.97;;;2.73;;
6479;SDS011;71753;48.772;9.148;2023-09-30T08:42:30;3.53;;;2.67;;
6479;SDS011;71753;48.772;9.148;2023-09-30T08:44:59;3.90;;;2.70;;
6479;SDS011;71753;48.772;9.148;2023-09-30T08:47:27;3.67;;;2.67;;
6479;SDS011;71753;48.772;9.148;2023-09-30T08:49:54;5.10;;;3.30;;
6479;SDS011;71753;48.772;9.148;2023-09-30T08:52:30;3.57;;;2.97;;
6479;SDS011;71753;48.772;9.148;2023-09-30T08:54:58;6.10;;;2.70;;
6479;SDS011;71753;48.772;9.148;2023-09-30T08:57:25;3.87;;;2.70;;
6479;SDS011;71753;48.772;9.148;2023-09-30T08:59:52;3.93;;;2.70;;
6479;SDS011;71753;48.772;9.148;2023-09-30T09:02:20;4.33;;;3.30;;
6479;SDS011;71753;48.772;9.148;2023-09-30T09:04:48;4.00;;;2.60;;
6479;SDS011;71753;48.772;9.148;2023-09-30T09:07:16;3.83;;;2.70;;
6479;SDS011;71753;48.772;9.148;2023-09-30T09:09:43;4.07;;;2.70;;
6479;SDS011;71753;48.772;9.148;2023-09-30T09:12:29;3.97;;;3.10;;
6479;SDS011;71753;48.772;9.148;2023-09-30T09:14:55;4.77;;;3.00;;
6479;SDS011;71753;48.772;9.148;2023-09-30T09:17:22;6.37;;;3.13;;
6479;SDS011;71753;48.772;9.148;2023-09-30T09:19:58;3.80;;;2.87;;
6479;SDS011;71753;48.772;9.148;2023-09-30T09:22:37;5.37;;;3.03;;
6479;SDS011;71753;48.772;9.148;2023-09-30T09:25:04;5.27;;;3.20;;
6479;SDS011;71753;48.772;9.148;2023-09-30T09:27:33;4.27;;;2.63;;
6479;SDS011;71753;48.772;9.148;2023-09-30T09:30:07;5.23;;;3.27;;
6479;SDS011;71753;48.772;9.148;2023-09-30T09:32:51;4.93;;;3.10;;
6479;SDS011;71753;48.772;9.148;2023-09-30T09:35:37;5.23;;;3.13;;
6479;SDS011;71753;48.772;9.148;2023-09-30T09:38:04;4.77;;;3.00;;
6479;SDS011;71753;48.772;9.148;2023-09-30T09:40:32;4.03;;;2.83;;
6479;SDS011;71753;48.772;9.148;2023-09-30T09:43:00;4.47;;;2.87;;
6479;SDS011;71753;48.772;9.148;2023-09-30T09:45:30;4.50;;;2.40;;
6479;SDS011;71753;48.772;9.148;2023-09-30T09:47:59;4.00;;;2.80;;
6479;SDS011;71753;48.772;9.148;2023-09-30T09:50:29;3.97;;;2.73;;
6479;SDS011;71753;48.772;9.148;2023-09-30T09:52:58;3.60;;;2.60;;
6479;SDS011;71753;48.772;9.148;2023-09-30T09:55:26;2.50;;;2.30;;
6479;SDS011;71753;48.772;9.148;2023-09-30T09:57:53;5.83;;;3.00;;
6479;SDS011;71753;48.772;9.148;2023-09-30T10:00:21;4.07;;;2.70;;
6479;SDS011;71753;48.772;9.148;2023-09-30T10:02:49;3.80;;;2.73;;
6479;SDS011;71753;48.772;9.148;2023-09-30T10:05:17;4.20;;;2.70;;
6479;SDS011;71753;48.772;9.148;2023-09-30T10:07:46;3.43;;;2.47;;
6479;SDS011;71753;48.772;9.148;2023-09-30T10:10:24;4.13;;;3.13;;
6479;SDS011;71753;48.772;9.148;2023-09-30T10:12:51;5.43;;;2.80;;
6479;SDS011;71753;48.772;9.148;2023-09-30T10:18:05;3.00;;;2.50;;
6479;SDS011;71753;48.772;9.148;2023-09-30T10:20:34;4.40;;;3.03;;
6479;SDS011;71753;48.772;9.148;2023-09-30T10:25:48;4.70;;;2.67;;
6479;SDS011;71753;48.772;9.148;2023-09-30T10:28:32;5.23;;;2.97;;
6479;SDS011;71753;48.772;9.148;2023-09-30T10:31:13;5.60;;;3.20;;
6479;SDS011;71753;48.772;9.148;2023-09-30T10:36:45;4.23;;;2.70;;
6479;SDS011;71753;48.772;9.148;2023-09-30T10:39:13;4.70;;;2.77;;
6479;SDS011;71753;48.772;9.148;2023-09-30T10:41:50;3.37;;;2.50;;
6479;SDS011;71753;48.772;9.148;2023-09-30T10:44:32;4.57;;;2.60;;
6479;SDS011;71753;48.772;9.148;2023-09-30T10:47:00;3.43;;;2.53;;
6479;SDS011;71753;48.772;9.148;2023-09-30T10:49:49;3.43;;;2.57;;
6479;SDS011;71753;48.772;9.148;2023-09-30T10:52:21;4.23;;;2.70;;
6479;SDS011;71753;48.772;9.148;2023-09-30T10:54:47;4.03;;;2.50;;
6479;SDS011;71753;48.772;9.148;2023-09-30T10:57:27;3.90;;;2.77;;
6479;SDS011;71753;48.772;9.148;2023-09-30T11:00:06;5.40;;;2.70;;
6479;SDS011;71753;48.772;9.148;2023-09-30T11:02:47;4.53;;;2.73;;
6479;SDS011;71753;48.772;9.148;2023-09-30T11:05:14;5.10;;;2.70;;
6479;SDS011;71753;48.772;9.148;2023-09-30T11:07:41;4.83;;;2.90;;
6479;SDS011;71753;48.772;9.148;2023-09-30T11:10:09;5.63;;;2.77;;
6479;SDS011;71753;48.772;9.148;2023-09-30T11:12:38;5.37;;;3.00;;
6479;SDS011;71753;48.772;9.148;2023-09-30T11:15:05;4.17;;;2.50;;
6479;SDS011;71753;48.772;9.148;2023-09-30T11:17:34;4.60;;;2.67;;
6479;SDS011;71753;48.772;9.148;2023-09-30T11:20:02;5.13;;;2.90;;
6479;SDS011;71753;48.772;9.148;2023-09-30T11:22:31;6.43;;;2.97;;
6479;SDS011;71753;48.772;9.148;2023-09-30T11:24:59;3.87;;;2.57;;
6479;SDS011;71753;48.772;9.148;2023-09-30T11:27:28;6.20;;;2.97;;
6479;SDS011;71753;48.772;9.148;2023-09-30T11:29:57;5.10;;;2.80;;
6479;SDS011;71753;48.772;9.148;2023-09-30T11:32:24;5.00;;;2.77;;
6479;SDS011;71753;48.772;9.148;2023-09-30T11:34:52;5.77;;;3.07;;
6479;SDS011;71753;48.772;9.148;2023-09-30T11:37:19;4.43;;;2.80;;
6479;SDS011;71753;48.772;9.148;2023-09-30T11:39:46;6.57;;;3.03;;
6479;SDS011;71753;48.772;9.148;2023-09-30T11:42:15;4.00;;;2.50;;
6479;SDS011;71753;48.772;9.148;2023-09-30T11:44:45;4.40;;;2.90;;
6479;SDS011;71753;48.772;9.148;2023-09-30T11:47:15;5.07;;;3.10;;
6479;SDS011;71753;48.772;9.148;2023-09-30T11:49:42;3.90;;;2.67;;
6479;SDS011;71753;48.772;9.148;2023-09-30T11:52:11;4.90;;;2.97;;
6479;SDS011;71753;48.772;9.148;2023-09-30T11:54:39;5.13;;;2.93;;
6479;SDS011;71753;48.772;9.148;2023-09-30T11:57:08;6.70;;;3.20;;
6479;SDS011;71753;48.772;9.148;2023-09-30T11:59:36;5.13;;;3.00;;
6479;SDS011;71753;48.772;9.148;2023-09-30T12:02:04;5.80;;;3.03;;
6479;SDS011;71753;48.772;9.148;2023-09-30T12:04:33;5.33;;;2.60;;
6479;SDS011;71753;48.772;9.148;2023-09-30T12:06:59;4.53;;;2.87;;
6479;SDS011;71753;48.772;9.148;2023-09-30T12:09:26;4.87;;;2.70;;
6479;SDS011;71753;48.772;9.148;2023-09-30T12:11:53;5.17;;;2.90;;
6479;SDS011;71753;48.772;9.148;2023-09-30T12:14:22;4.23;;;2.97;;
6479;SDS011;71753;48.772;9.148;2023-09-30T12:16:50;5.33;;;2.90;;
6479;SDS011;71753;48.772;9.148;2023-09-30T12:19:16;4.17;;;2.83;;
6479;SDS011;71753;48.772;9.148;2023-09-30T12:21:45;4.33;;;2.67;;
6479;SDS011;71753;48.772;9.148;2023-09-30T12:24:13;4.50;;;2.70;;
6479;SDS011;71753;48.772;9.148;2023-09-30T12:26:41;5.10;;;2.83;;
6479;SDS011;71753;48.772;9.148;2023-09-30T12:29:08;5.13;;;2.80;;
6479;SDS011;71753;48.772;9.148;2023-09-30T12:31:35;4.80;;;2.87;;
6479;SDS011;71753;48.772;9.148;2023-09-30T12:34:01;3.90;;;2.30;;
6479;SDS011;71753;48.772;9.148;2023-09-30T12:36:28;6.17;;;3.10;;
6479;SDS011;71753;48.772;9.148;2023-09-30T12:38:56;5.00;;;3.07;;
6479;SDS011;71753;48.772;9.148;2023-09-30T12:41:23;5.13;;;2.87;;
6479;SDS011;71753;48.772;9.148;2023-09-30T12:43:50;5.47;;;2.60;;
6479;SDS011;71753;48.772;9.148;2023-09-30T12:46:16;8.50;;;3.40;;
6479;SDS011;71753;48.772;9.148;2023-09-30T12:48:43;4.63;;;2.70;;
6479;SDS011;71753;48.772;9.148;2023-09-30T12:51:10;5.23;;;2.83;;
6479;SDS011;71753;48.772;9.148;2023-09-30T12:53:36;4.93;;;2.50;;
6479;SDS011;71753;48.772;9.148;2023-09-30T12:56:04;6.03;;;3.00;;
6479;SDS011;71753;48.772;9.148;2023-09-30T12:58:31;4.77;;;3.00;;
6479;SDS011;71753;48.772;9.148;2023-09-30T13:00:58;5.50;;;3.07;;
6479;SDS011;71753;48.772;9.148;2023-09-30T13:03:25;6.73;;;2.67;;
6479;SDS011;71753;48.772;9.148;2023-09-30T13:05:52;4.53;;;2.77;;
6479;SDS011;71753;48.772;9.148;2023-09-30T13:08:19;6.97;;;3.30;;
6479;SDS011;71753;48.772;9.148;2023-09-30T13:10:45;5.30;;;3.10;;
6479;SDS011;71753;48.772;9.148;2023-09-30T13:13:16;3.93;;;3.00;;
6479;SDS011;71753;48.772;9.148;2023-09-30T13:15:43;3.97;;;2.73;;
6479;SDS011;71753;48.772;9.148;2023-09-30T13:18:09;5.37;;;2.90;;
6479;SDS011;71753;48.772;9.148;2023-09-30T13:20:36;4.80;;;2.73;;
6479;SDS011;71753;48.772;9.148;2023-09-30T13:23:03;5.67;;;3.00;;
6479;SDS011;71753;48.772;9.148;2023-09-30T13:25:30;5.43;;;2.73;;
6479;SDS011;71753;48.772;9.148;2023-09-30T13:27:56;5.17;;;2.70;;
6479;SDS011;71753;48.772;9.148;2023-09-30T13:30:24;5.10;;;3.10;;
6479;SDS011;71753;48.772;9.148;2023-09-30T13:32:51;5.57;;;3.00;;
6479;SDS011;71753;48.772;9.148;2023-09-30T13:35:18;4.60;;;2.90;;
6479;SDS011;71753;48.772;9.148;2023-09-30T13:37:44;3.97;;;2.80;;
6479;SDS011;71753;48.772;9.148;2023-09-30T13:40:12;5.67;;;2.70;;
6479;SDS011;71753;48.772;9.148;2023-09-30T13:42:39;4.37;;;2.90;;
6479;SDS011;71753;48.772;9.148;2023-09-30T13:45:07;4.63;;;2.97;;
6479;SDS011;71753;48.772;9.148;2023-09-30T13:47:36;5.50;;;3.00;;
6479;SDS011;71753;48.772;9.148;2023-09-30T13:50:03;6.07;;;2.97;;
6479;SDS011;71753;48.772;9.148;2023-09-30T13:52:32;5.77;;;3.17;;
6479;SDS011;71753;48.772;9.148;2023-09-30T13:54:59;4.03;;;2.83;;
6479;SDS011;71753;48.772;9.148;2023-09-30T13:57:26;5.37;;;3.07;;
6479;SDS011;71753;48.772;9.148;2023-09-30T13:59:52;5.40;;;3.10;;
6479;SDS011;71753;48.772;9.148;2023-09-30T14:02:19;4.10;;;2.63;;
6479;SDS011;71753;48.772;9.148;2023-09-30T14:04:47;5.23;;;3.00;;
6479;SDS011;71753;48.772;9.148;2023-09-30T14:07:13;4.50;;;2.93;;
6479;SDS011;71753;48.772;9.148;2023-09-30T14:09:43;6.23;;;3.10;;
6479;SDS011;71753;48.772;9.148;2023-09-30T14:12:09;4.83;;;2.87;;
6479;SDS011;71753;48.772;9.148;2023-09-30T14:14:37;5.70;;;3.17;;
6479;SDS011;71753;48.772;9.148;2023-09-30T14:17:03;5.20;;;3.00;;
6479;SDS011;71753;48.772;9.148;2023-09-30T14:19:32;5.07;;;2.77;;
6479;SDS011;71753;48.772;9.148;2023-09-30T14:22:01;5.93;;;2.83;;
6479;SDS011;71753;48.772;9.148;2023-09-30T14:24:29;5.03;;;2.90;;
6479;SDS011;71753;48.772;9.148;2023-09-30T14:26:55;5.03;;;2.87;;
6479;SDS011;71753;48.772;9.148;2023-09-30T14:29:22;4.67;;;2.90;;
6479;SDS011;71753;48.772;9.148;2023-09-30T14:31:49;5.77;;;3.27;;
6479;SDS011;71753;48.772;9.148;2023-09-30T14:34:16;4.70;;;2.80;;
6479;SDS011;71753;48.772;9.148;2023-09-30T14:36:43;5.27;;;2.90;;
6479;SDS011;71753;48.772;9.148;2023-09-30T14:39:11;5.33;;;3.03;;
6479;SDS011;71753;48.772;9.148;2023-09-30T14:41:37;5.03;;;2.80;;
6479;SDS011;71753;48.772;9.148;2023-09-30T14:44:04;5.30;;;3.10;;
6479;SDS011;71753;48.772;9.148;2023-09-30T14:46:32;4.43;;;2.67;;
6479;SDS011;71753;48.772;9.148;2023-09-30T14:48:59;5.57;;;3.03;;
6479;SDS011;71753;48.772;9.148;2023-09-30T14:51:26;5.53;;;3.03;;
6479;SDS011;71753;48.772;9.148;2023-09-30T14:53:53;5.20;;;3.10;;
6479;SDS011;71753;48.772;9.148;2023-09-30T14:56:21;5.80;;;2.70;;
6479;SDS011;71753;48.772;9.148;2023-09-30T14:58:47;5.67;;;3.13;;
6479;SDS011;71753;48.772;9.148;2023-09-30T15:01:14;4.60;;;2.80;;
6479;SDS011;71753;48.772;9.148;2023-09-30T15:03:41;6.37;;;3.10;;
6479;SDS011;71753;48.772;9.148;2023-09-30T15:06:09;4.67;;;2.83;;
6479;SDS011;71753;48.772;9.148;2023-09-30T15:08:35;5.17;;;2.80;;
6479;SDS011;71753;48.772;9.148;2023-09-30T15:11:02;5.30;;;3.10;;
6479;SDS011;71753;48.772;9.148;2023-09-30T15:13:30;5.43;;;2.80;;